sensor_id;sensor_type;location;lat;lon;timestamp;pressure;altitude;pressure_sealevel;temperature
38114;BMP180;23926;53.222;6.354;2023-05-16T00:01:39;101694.00;;;11.10
38114;BMP180;23926;53.222;6.354;2023-05-16T00:04:05;101685.00;;;11.00
38114;BMP180;23926;53.222;6.354;2023-05-16T00:06:30;101690.00;;;11.10
38114;BMP180;23926;53.222;6.354;2023-05-16T00:08:56;101686.00;;;11.00
38114;BMP180;23926;53.222;6.354;2023-05-16T00:11:21;101685.00;;;11.00
38114;BMP180;23926;53.222;6.354;2023-05-16T00:13:47;101688.00;;;10.90
38114;BMP180;23926;53.222;6.354;2023-05-16T00:16:13;101694.00;;;10.90
38114;BMP180;23926;53.222;6.354;2023-05-16T00:18:39;101696.00;;;11.10
38114;BMP180;23926;53.222;6.354;2023-05-16T00:21:05;101699.00;;;11.00
38114;BMP180;23926;53.222;6.354;2023-05-16T00:23:30;101698.00;;;11.20
38114;BMP180;23926;53.222;6.354;2023-05-16T00:25:56;101694.00;;;11.20
38114;BMP180;23926;53.222;6.354;2023-05-16T00:28:21;101693.00;;;11.20
38114;BMP180;23926;53.222;6.354;2023-05-16T00:30:47;101696.00;;;11.20
38114;BMP180;23926;53.222;6.354;2023-05-16T00:33:12;101689.00;;;11.10
38114;BMP180;23926;53.222;6.354;2023-05-16T00:35:38;101705.00;;;11.00
38114;BMP180;23926;53.222;6.354;2023-05-16T00:38:04;101698.00;;;11.00
38114;BMP180;23926;53.222;6.354;2023-05-16T00:40:29;101698.00;;;11.00
38114;BMP180;23926;53.222;6.354;2023-05-16T00:42:55;101685.00;;;10.90
38114;BMP180;23926;53.222;6.354;2023-05-16T00:45:22;101692.00;;;10.90
38114;BMP180;23926;53.222;6.354;2023-05-16T00:47:47;101700.00;;;10.80
38114;BMP180;23926;53.222;6.354;2023-05-16T00:50:13;101700.00;;;10.90
38114;BMP180;23926;53.222;6.354;2023-05-16T00:52:38;101696.00;;;10.90
38114;BMP180;23926;53.222;6.354;2023-05-16T00:55:05;101692.00;;;10.90
38114;BMP180;23926;53.222;6.354;2023-05-16T00:57:31;101695.00;;;10.90
38114;BMP180;23926;53.222;6.354;2023-05-16T00:59:56;101691.00;;;10.90
38114;BMP180;23926;53.222;6.354;2023-05-16T01:05:16;101698.00;;;10.90
38114;BMP180;23926;53.222;6.354;2023-05-16T01:07:41;101690.00;;;10.80
38114;BMP180;23926;53.222;6.354;2023-05-16T01:10:07;101692.00;;;10.90
38114;BMP180;23926;53.222;6.354;2023-05-16T01:16:03;101687.00;;;10.80
38114;BMP180;23926;53.222;6.354;2023-05-16T01:18:06;101688.00;;;10.70
38114;BMP180;23926;53.222;6.354;2023-05-16T01:20:52;101697.00;;;10.90
38114;BMP180;23926;53.222;6.354;2023-05-16T01:26:26;101689.00;;;10.80
38114;BMP180;23926;53.222;6.354;2023-05-16T01:28:52;101702.00;;;10.70
38114;BMP180;23926;53.222;6.354;2023-05-16T01:31:22;101693.00;;;10.90
38114;BMP180;23926;53.222;6.354;2023-05-16T01:33:48;101683.00;;;11.10
38114;BMP180;23926;53.222;6.354;2023-05-16T01:39:01;101696.00;;;11.30
38114;BMP180;23926;53.222;6.354;2023-05-16T01:41:38;101691.00;;;11.20
38114;BMP180;23926;53.222;6.354;2023-05-16T01:44:25;101690.00;;;11.40
38114;BMP180;23926;53.222;6.354;2023-05-16T01:46:56;101693.00;;;11.30
38114;BMP180;23926;53.222;6.354;2023-05-16T01:49:29;101690.00;;;11.40
38114;BMP180;23926;53.222;6.354;2023-05-16T01:52:00;101701.00;;;11.50
38114;BMP180;23926;53.222;6.354;2023-05-16T01:54:30;101692.00;;;11.50
38114;BMP180;23926;53.222;6.354;2023-05-16T01:56:55;101696.00;;;11.50
38114;BMP180;23926;53.222;6.354;2023-05-16T01:59:23;101683.00;;;11.50
38114;BMP180;23926;53.222;6.354;2023-05-16T02:01:52;101682.00;;;11.60
38114;BMP180;23926;53.222;6.354;2023-05-16T02:04:17;101696.00;;;11.70
38114;BMP180;23926;53.222;6.354;2023-05-16T02:06:43;101691.00;;;11.60
38114;BMP180;23926;53.222;6.354;2023-05-16T02:09:09;101691.00;;;11.60
38114;BMP180;23926;53.222;6.354;2023-05-16T02:11:34;101692.00;;;11.70
38114;BMP180;23926;53.222;6.354;2023-05-16T02:14:00;101695.00;;;11.60
38114;BMP180;23926;53.222;6.354;2023-05-16T02:16:25;101697.00;;;11.40
38114;BMP180;23926;53.222;6.354;2023-05-16T02:18:50;101682.00;;;11.30
38114;BMP180;23926;53.222;6.354;2023-05-16T02:21:16;101691.00;;;11.30
38114;BMP180;23926;53.222;6.354;2023-05-16T02:23:41;101692.00;;;11.20
38114;BMP180;23926;53.222;6.354;2023-05-16T02:26:07;101678.00;;;11.30
38114;BMP180;23926;53.222;6.354;2023-05-16T02:28:32;101688.00;;;11.10
38114;BMP180;23926;53.222;6.354;2023-05-16T02:30:58;101683.00;;;11.10
38114;BMP180;23926;53.222;6.354;2023-05-16T02:33:25;101692.00;;;10.80
38114;BMP180;23926;53.222;6.354;2023-05-16T02:35:52;101685.00;;;10.90
38114;BMP180;23926;53.222;6.354;2023-05-16T02:38:17;101685.00;;;10.90
38114;BMP180;23926;53.222;6.354;2023-05-16T02:40:47;101699.00;;;10.80
38114;BMP180;23926;53.222;6.354;2023-05-16T02:43:13;101699.00;;;10.90
38114;BMP180;23926;53.222;6.354;2023-05-16T02:45:38;101701.00;;;10.80
38114;BMP180;23926;53.222;6.354;2023-05-16T02:48:05;101689.00;;;10.90
38114;BMP180;23926;53.222;6.354;2023-05-16T02:50:30;101693.00;;;10.80
38114;BMP180;23926;53.222;6.354;2023-05-16T02:52:56;101682.00;;;10.80
38114;BMP180;23926;53.222;6.354;2023-05-16T02:55:24;101688.00;;;10.70
38114;BMP180;23926;53.222;6.354;2023-05-16T02:57:50;101675.00;;;10.70
38114;BMP180;23926;53.222;6.354;2023-05-16T03:00:16;101689.00;;;10.80
38114;BMP180;23926;53.222;6.354;2023-05-16T03:02:42;101683.00;;;10.80
38114;BMP180;23926;53.222;6.354;2023-05-16T03:05:08;101702.00;;;10.60
38114;BMP180;23926;53.222;6.354;2023-05-16T03:07:34;101696.00;;;10.70
38114;BMP180;23926;53.222;6.354;2023-05-16T03:10:00;101697.00;;;10.70
38114;BMP180;23926;53.222;6.354;2023-05-16T03:12:25;101688.00;;;10.70
38114;BMP180;23926;53.222;6.354;2023-05-16T03:14:51;101686.00;;;10.90
38114;BMP180;23926;53.222;6.354;2023-05-16T03:17:16;101689.00;;;10.90
38114;BMP180;23926;53.222;6.354;2023-05-16T03:19:42;101700.00;;;10.80
38114;BMP180;23926;53.222;6.354;2023-05-16T03:22:07;101692.00;;;10.90
38114;BMP180;23926;53.222;6.354;2023-05-16T03:24:32;101699.00;;;11.00
38114;BMP180;23926;53.222;6.354;2023-05-16T03:26:58;101696.00;;;11.00
38114;BMP180;23926;53.222;6.354;2023-05-16T03:29:24;101696.00;;;11.00
38114;BMP180;23926;53.222;6.354;2023-05-16T03:31:51;101697.00;;;10.90
38114;BMP180;23926;53.222;6.354;2023-05-16T03:34:16;101700.00;;;10.80
38114;BMP180;23926;53.222;6.354;2023-05-16T03:36:42;101705.00;;;10.80
38114;BMP180;23926;53.222;6.354;2023-05-16T03:39:07;101710.00;;;10.70
38114;BMP180;23926;53.222;6.354;2023-05-16T03:41:33;101708.00;;;10.80
38114;BMP180;23926;53.222;6.354;2023-05-16T03:43:59;101726.00;;;10.80
38114;BMP180;23926;53.222;6.354;2023-05-16T03:46:24;101719.00;;;10.80
38114;BMP180;23926;53.222;6.354;2023-05-16T03:48:50;101725.00;;;10.80
38114;BMP180;23926;53.222;6.354;2023-05-16T03:51:16;101727.00;;;10.80
38114;BMP180;23926;53.222;6.354;2023-05-16T03:53:41;101726.00;;;10.90
38114;BMP180;23926;53.222;6.354;2023-05-16T03:56:06;101721.00;;;11.00
38114;BMP180;23926;53.222;6.354;2023-05-16T03:58:32;101732.00;;;10.90
38114;BMP180;23926;53.222;6.354;2023-05-16T04:00:58;101727.00;;;10.90
38114;BMP180;23926;53.222;6.354;2023-05-16T04:03:23;101730.00;;;10.80
38114;BMP180;23926;53.222;6.354;2023-05-16T04:05:53;101720.00;;;10.90
38114;BMP180;23926;53.222;6.354;2023-05-16T04:08:19;101725.00;;;10.90
38114;BMP180;23926;53.222;6.354;2023-05-16T04:10:45;101721.00;;;10.90
38114;BMP180;23926;53.222;6.354;2023-05-16T04:13:10;101719.00;;;10.80
38114;BMP180;23926;53.222;6.354;2023-05-16T04:15:36;101716.00;;;10.70
38114;BMP180;23926;53.222;6.354;2023-05-16T04:18:01;101719.00;;;10.70
38114;BMP180;23926;53.222;6.354;2023-05-16T04:20:27;101723.00;;;10.70
38114;BMP180;23926;53.222;6.354;2023-05-16T04:22:52;101733.00;;;10.60
38114;BMP180;23926;53.222;6.354;2023-05-16T04:25:18;101727.00;;;10.60
38114;BMP180;23926;53.222;6.354;2023-05-16T04:27:43;101729.00;;;10.70
38114;BMP180;23926;53.222;6.354;2023-05-16T04:30:09;101729.00;;;10.70
38114;BMP180;23926;53.222;6.354;2023-05-16T04:32:35;101737.00;;;10.60
38114;BMP180;23926;53.222;6.354;2023-05-16T04:35:02;101741.00;;;10.60
38114;BMP180;23926;53.222;6.354;2023-05-16T04:37:27;101744.00;;;10.60
38114;BMP180;23926;53.222;6.354;2023-05-16T04:39:53;101743.00;;;10.50
38114;BMP180;23926;53.222;6.354;2023-05-16T04:42:19;101754.00;;;10.60
38114;BMP180;23926;53.222;6.354;2023-05-16T04:44:44;101747.00;;;10.60
38114;BMP180;23926;53.222;6.354;2023-05-16T04:47:12;101748.00;;;10.70
38114;BMP180;23926;53.222;6.354;2023-05-16T04:49:37;101756.00;;;10.80
38114;BMP180;23926;53.222;6.354;2023-05-16T04:52:04;101756.00;;;10.80
38114;BMP180;23926;53.222;6.354;2023-05-16T04:54:30;101752.00;;;10.80
38114;BMP180;23926;53.222;6.354;2023-05-16T04:56:56;101765.00;;;10.80
38114;BMP180;23926;53.222;6.354;2023-05-16T04:59:21;101773.00;;;10.80
38114;BMP180;23926;53.222;6.354;2023-05-16T05:01:47;101766.00;;;10.80
38114;BMP180;23926;53.222;6.354;2023-05-16T05:04:12;101762.00;;;10.90
38114;BMP180;23926;53.222;6.354;2023-05-16T05:06:38;101780.00;;;10.80
38114;BMP180;23926;53.222;6.354;2023-05-16T05:09:03;101771.00;;;10.90
38114;BMP180;23926;53.222;6.354;2023-05-16T05:11:30;101770.00;;;10.90
38114;BMP180;23926;53.222;6.354;2023-05-16T05:13:56;101767.00;;;11.00
38114;BMP180;23926;53.222;6.354;2023-05-16T05:16:21;101770.00;;;11.10
38114;BMP180;23926;53.222;6.354;2023-05-16T05:18:46;101775.00;;;11.30
38114;BMP180;23926;53.222;6.354;2023-05-16T05:21:12;101761.00;;;11.30
38114;BMP180;23926;53.222;6.354;2023-05-16T05:23:37;101770.00;;;11.50
38114;BMP180;23926;53.222;6.354;2023-05-16T05:26:03;101783.00;;;11.60
38114;BMP180;23926;53.222;6.354;2023-05-16T05:28:29;101789.00;;;11.80
38114;BMP180;23926;53.222;6.354;2023-05-16T05:30:54;101765.00;;;11.70
38114;BMP180;23926;53.222;6.354;2023-05-16T05:33:25;101778.00;;;11.70
38114;BMP180;23926;53.222;6.354;2023-05-16T05:35:51;101782.00;;;11.60
38114;BMP180;23926;53.222;6.354;2023-05-16T05:38:18;101772.00;;;11.60
38114;BMP180;23926;53.222;6.354;2023-05-16T05:40:43;101776.00;;;11.80
38114;BMP180;23926;53.222;6.354;2023-05-16T05:43:09;101785.00;;;11.70
38114;BMP180;23926;53.222;6.354;2023-05-16T05:45:34;101796.00;;;11.60
38114;BMP180;23926;53.222;6.354;2023-05-16T05:48:00;101780.00;;;11.80
38114;BMP180;23926;53.222;6.354;2023-05-16T05:50:25;101778.00;;;11.80
38114;BMP180;23926;53.222;6.354;2023-05-16T05:52:51;101792.00;;;11.80
38114;BMP180;23926;53.222;6.354;2023-05-16T05:55:16;101798.00;;;12.10
38114;BMP180;23926;53.222;6.354;2023-05-16T05:57:43;101801.00;;;12.20
38114;BMP180;23926;53.222;6.354;2023-05-16T06:00:08;101797.00;;;12.30
38114;BMP180;23926;53.222;6.354;2023-05-16T06:02:34;101805.00;;;12.30
38114;BMP180;23926;53.222;6.354;2023-05-16T06:05:00;101808.00;;;12.30
38114;BMP180;23926;53.222;6.354;2023-05-16T06:07:25;101797.00;;;12.20
38114;BMP180;23926;53.222;6.354;2023-05-16T06:09:51;101806.00;;;12.30
38114;BMP180;23926;53.222;6.354;2023-05-16T06:12:16;101806.00;;;12.20
38114;BMP180;23926;53.222;6.354;2023-05-16T06:14:42;101813.00;;;12.40
38114;BMP180;23926;53.222;6.354;2023-05-16T06:17:07;101805.00;;;12.30
38114;BMP180;23926;53.222;6.354;2023-05-16T06:19:32;101816.00;;;12.30
38114;BMP180;23926;53.222;6.354;2023-05-16T06:21:58;101824.00;;;12.50
38114;BMP180;23926;53.222;6.354;2023-05-16T06:24:23;101816.00;;;12.50
38114;BMP180;23926;53.222;6.354;2023-05-16T06:26:48;101826.00;;;12.70
38114;BMP180;23926;53.222;6.354;2023-05-16T06:29:15;101826.00;;;12.80
38114;BMP180;23926;53.222;6.354;2023-05-16T06:31:41;101823.00;;;12.90
38114;BMP180;23926;53.222;6.354;2023-05-16T06:34:07;101825.00;;;12.80
38114;BMP180;23926;53.222;6.354;2023-05-16T06:36:32;101829.00;;;12.70
38114;BMP180;23926;53.222;6.354;2023-05-16T06:38:57;101834.00;;;12.60
38114;BMP180;23926;53.222;6.354;2023-05-16T06:41:23;101826.00;;;12.90
38114;BMP180;23926;53.222;6.354;2023-05-16T06:43:48;101823.00;;;12.80
38114;BMP180;23926;53.222;6.354;2023-05-16T06:46:14;101839.00;;;12.90
38114;BMP180;23926;53.222;6.354;2023-05-16T06:48:39;101841.00;;;13.00
38114;BMP180;23926;53.222;6.354;2023-05-16T06:51:04;101839.00;;;13.10
38114;BMP180;23926;53.222;6.354;2023-05-16T06:53:30;101824.00;;;13.30
38114;BMP180;23926;53.222;6.354;2023-05-16T06:55:55;101835.00;;;13.20
38114;BMP180;23926;53.222;6.354;2023-05-16T06:58:21;101839.00;;;13.20
38114;BMP180;23926;53.222;6.354;2023-05-16T07:00:48;101843.00;;;13.00
38114;BMP180;23926;53.222;6.354;2023-05-16T07:03:14;101847.00;;;12.90
38114;BMP180;23926;53.222;6.354;2023-05-16T07:05:39;101839.00;;;13.00
38114;BMP180;23926;53.222;6.354;2023-05-16T07:08:08;101843.00;;;13.00
38114;BMP180;23926;53.222;6.354;2023-05-16T07:10:34;101847.00;;;13.20
38114;BMP180;23926;53.222;6.354;2023-05-16T07:12:59;101845.00;;;13.40
38114;BMP180;23926;53.222;6.354;2023-05-16T07:15:25;101849.00;;;13.80
38114;BMP180;23926;53.222;6.354;2023-05-16T07:17:51;101851.00;;;13.80
38114;BMP180;23926;53.222;6.354;2023-05-16T07:20:16;101846.00;;;13.70
38114;BMP180;23926;53.222;6.354;2023-05-16T07:22:42;101861.00;;;13.40
38114;BMP180;23926;53.222;6.354;2023-05-16T07:25:07;101851.00;;;13.60
38114;BMP180;23926;53.222;6.354;2023-05-16T07:27:38;101850.00;;;14.00
38114;BMP180;23926;53.222;6.354;2023-05-16T07:30:06;101865.00;;;13.90
38114;BMP180;23926;53.222;6.354;2023-05-16T07:32:32;101865.00;;;14.00
38114;BMP180;23926;53.222;6.354;2023-05-16T07:34:57;101849.00;;;14.10
38114;BMP180;23926;53.222;6.354;2023-05-16T07:37:22;101850.00;;;14.00
38114;BMP180;23926;53.222;6.354;2023-05-16T07:39:48;101873.00;;;14.10
38114;BMP180;23926;53.222;6.354;2023-05-16T07:42:14;101865.00;;;13.90
38114;BMP180;23926;53.222;6.354;2023-05-16T07:44:39;101855.00;;;13.90
38114;BMP180;23926;53.222;6.354;2023-05-16T07:47:05;101864.00;;;14.00
38114;BMP180;23926;53.222;6.354;2023-05-16T07:49:30;101856.00;;;14.30
38114;BMP180;23926;53.222;6.354;2023-05-16T07:51:56;101862.00;;;14.30
38114;BMP180;23926;53.222;6.354;2023-05-16T07:54:21;101858.00;;;14.30
38114;BMP180;23926;53.222;6.354;2023-05-16T07:56:47;101869.00;;;14.30
38114;BMP180;23926;53.222;6.354;2023-05-16T07:59:12;101870.00;;;14.50
38114;BMP180;23926;53.222;6.354;2023-05-16T08:01:39;101872.00;;;14.60
38114;BMP180;23926;53.222;6.354;2023-05-16T08:04:04;101863.00;;;14.80
38114;BMP180;23926;53.222;6.354;2023-05-16T08:06:30;101871.00;;;14.50
38114;BMP180;23926;53.222;6.354;2023-05-16T08:08:55;101887.00;;;14.00
38114;BMP180;23926;53.222;6.354;2023-05-16T08:11:21;101880.00;;;13.70
38114;BMP180;23926;53.222;6.354;2023-05-16T08:13:47;101874.00;;;13.90
38114;BMP180;23926;53.222;6.354;2023-05-16T08:16:13;101875.00;;;14.20
38114;BMP180;23926;53.222;6.354;2023-05-16T08:18:38;101880.00;;;14.60
38114;BMP180;23926;53.222;6.354;2023-05-16T08:21:04;101889.00;;;14.60
38114;BMP180;23926;53.222;6.354;2023-05-16T08:23:29;101872.00;;;14.70
38114;BMP180;23926;53.222;6.354;2023-05-16T08:25:55;101885.00;;;14.80
38114;BMP180;23926;53.222;6.354;2023-05-16T08:28:20;101888.00;;;14.80
38114;BMP180;23926;53.222;6.354;2023-05-16T08:30:46;101889.00;;;15.00
38114;BMP180;23926;53.222;6.354;2023-05-16T08:33:11;101877.00;;;15.00
38114;BMP180;23926;53.222;6.354;2023-05-16T08:35:41;101881.00;;;14.80
38114;BMP180;23926;53.222;6.354;2023-05-16T08:38:07;101895.00;;;14.50
38114;BMP180;23926;53.222;6.354;2023-05-16T08:40:32;101884.00;;;14.40
38114;BMP180;23926;53.222;6.354;2023-05-16T08:42:58;101891.00;;;14.40
38114;BMP180;23926;53.222;6.354;2023-05-16T08:45:23;101883.00;;;14.80
38114;BMP180;23926;53.222;6.354;2023-05-16T08:47:49;101892.00;;;15.00
38114;BMP180;23926;53.222;6.354;2023-05-16T08:50:16;101899.00;;;15.20
38114;BMP180;23926;53.222;6.354;2023-05-16T08:52:43;101900.00;;;15.50
38114;BMP180;23926;53.222;6.354;2023-05-16T08:55:10;101899.00;;;15.00
38114;BMP180;23926;53.222;6.354;2023-05-16T08:57:36;101896.00;;;14.70
38114;BMP180;23926;53.222;6.354;2023-05-16T09:00:02;101907.00;;;14.70
38114;BMP180;23926;53.222;6.354;2023-05-16T09:02:31;101903.00;;;14.60
38114;BMP180;23926;53.222;6.354;2023-05-16T09:04:57;101895.00;;;15.20
38114;BMP180;23926;53.222;6.354;2023-05-16T09:07:23;101889.00;;;15.20
38114;BMP180;23926;53.222;6.354;2023-05-16T09:09:49;101907.00;;;14.80
38114;BMP180;23926;53.222;6.354;2023-05-16T09:12:14;101893.00;;;14.70
38114;BMP180;23926;53.222;6.354;2023-05-16T09:14:41;101908.00;;;14.60
38114;BMP180;23926;53.222;6.354;2023-05-16T09:17:07;101906.00;;;15.00
38114;BMP180;23926;53.222;6.354;2023-05-16T09:19:37;101910.00;;;15.20
38114;BMP180;23926;53.222;6.354;2023-05-16T09:22:04;101908.00;;;15.30
38114;BMP180;23926;53.222;6.354;2023-05-16T09:24:30;101897.00;;;15.40
38114;BMP180;23926;53.222;6.354;2023-05-16T09:26:55;101888.00;;;15.50
38114;BMP180;23926;53.222;6.354;2023-05-16T09:29:21;101885.00;;;15.80
38114;BMP180;23926;53.222;6.354;2023-05-16T09:31:48;101897.00;;;16.00
38114;BMP180;23926;53.222;6.354;2023-05-16T09:34:14;101902.00;;;15.80
38114;BMP180;23926;53.222;6.354;2023-05-16T09:36:39;101914.00;;;15.10
38114;BMP180;23926;53.222;6.354;2023-05-16T09:39:06;101910.00;;;14.70
38114;BMP180;23926;53.222;6.354;2023-05-16T09:41:34;101904.00;;;14.60
38114;BMP180;23926;53.222;6.354;2023-05-16T09:44:03;101912.00;;;15.10
38114;BMP180;23926;53.222;6.354;2023-05-16T09:46:33;101931.00;;;15.10
38114;BMP180;23926;53.222;6.354;2023-05-16T09:48:58;101908.00;;;14.30
38114;BMP180;23926;53.222;6.354;2023-05-16T09:51:24;101909.00;;;13.40
38114;BMP180;23926;53.222;6.354;2023-05-16T09:53:50;101912.00;;;13.30
38114;BMP180;23926;53.222;6.354;2023-05-16T09:56:16;101918.00;;;13.70
38114;BMP180;23926;53.222;6.354;2023-05-16T09:58:42;101916.00;;;14.10
38114;BMP180;23926;53.222;6.354;2023-05-16T10:01:09;101922.00;;;14.50
38114;BMP180;23926;53.222;6.354;2023-05-16T10:03:36;101920.00;;;14.90
38114;BMP180;23926;53.222;6.354;2023-05-16T10:06:03;101922.00;;;14.90
38114;BMP180;23926;53.222;6.354;2023-05-16T10:08:31;101920.00;;;15.10
38114;BMP180;23926;53.222;6.354;2023-05-16T10:11:01;101932.00;;;15.10
38114;BMP180;23926;53.222;6.354;2023-05-16T10:13:32;101934.00;;;15.20
38114;BMP180;23926;53.222;6.354;2023-05-16T10:15:58;101928.00;;;15.40
38114;BMP180;23926;53.222;6.354;2023-05-16T10:18:34;101922.00;;;15.20
38114;BMP180;23926;53.222;6.354;2023-05-16T10:21:13;101900.00;;;15.40
38114;BMP180;23926;53.222;6.354;2023-05-16T10:23:41;101925.00;;;15.60
38114;BMP180;23926;53.222;6.354;2023-05-16T10:26:07;101935.00;;;15.50
38114;BMP180;23926;53.222;6.354;2023-05-16T10:28:34;101938.00;;;15.30
38114;BMP180;23926;53.222;6.354;2023-05-16T10:31:00;101933.00;;;15.20
38114;BMP180;23926;53.222;6.354;2023-05-16T10:33:27;101939.00;;;15.20
38114;BMP180;23926;53.222;6.354;2023-05-16T10:35:52;101926.00;;;15.50
38114;BMP180;23926;53.222;6.354;2023-05-16T10:38:20;101930.00;;;15.50
38114;BMP180;23926;53.222;6.354;2023-05-16T10:40:46;101903.00;;;15.50
38114;BMP180;23926;53.222;6.354;2023-05-16T10:43:25;101926.00;;;15.60
38114;BMP180;23926;53.222;6.354;2023-05-16T10:46:03;101924.00;;;15.50
38114;BMP180;23926;53.222;6.354;2023-05-16T10:48:34;101940.00;;;15.60
38114;BMP180;23926;53.222;6.354;2023-05-16T10:51:00;101922.00;;;15.70
38114;BMP180;23926;53.222;6.354;2023-05-16T10:53:36;101940.00;;;15.90
38114;BMP180;23926;53.222;6.354;2023-05-16T11:01:31;101920.00;;;16.00
38114;BMP180;23926;53.222;6.354;2023-05-16T11:06:49;101934.00;;;16.30
38114;BMP180;23926;53.222;6.354;2023-05-16T11:09:21;101938.00;;;16.30
38114;BMP180;23926;53.222;6.354;2023-05-16T11:19:43;101944.00;;;15.40
38114;BMP180;23926;53.222;6.354;2023-05-16T11:27:26;101937.00;;;16.00
38114;BMP180;23926;53.222;6.354;2023-05-16T11:29:54;101935.00;;;16.30
38114;BMP180;23926;53.222;6.354;2023-05-16T11:32:21;101941.00;;;16.40
38114;BMP180;23926;53.222;6.354;2023-05-16T11:34:47;101937.00;;;16.90
38114;BMP180;23926;53.222;6.354;2023-05-16T11:37:14;101946.00;;;16.80
38114;BMP180;23926;53.222;6.354;2023-05-16T11:39:40;101948.00;;;16.60
38114;BMP180;23926;53.222;6.354;2023-05-16T11:42:05;101948.00;;;16.20
38114;BMP180;23926;53.222;6.354;2023-05-16T11:44:31;101934.00;;;16.20
38114;BMP180;23926;53.222;6.354;2023-05-16T11:46:56;101940.00;;;16.40
38114;BMP180;23926;53.222;6.354;2023-05-16T11:49:22;101943.00;;;16.30
38114;BMP180;23926;53.222;6.354;2023-05-16T11:51:47;101957.00;;;16.10
38114;BMP180;23926;53.222;6.354;2023-05-16T11:54:14;101948.00;;;16.20
38114;BMP180;23926;53.222;6.354;2023-05-16T11:56:40;101957.00;;;16.40
38114;BMP180;23926;53.222;6.354;2023-05-16T11:59:06;101964.00;;;16.70
38114;BMP180;23926;53.222;6.354;2023-05-16T12:01:36;101933.00;;;16.70
38114;BMP180;23926;53.222;6.354;2023-05-16T12:04:12;101960.00;;;16.70
38114;BMP180;23926;53.222;6.354;2023-05-16T12:06:39;101955.00;;;16.30
38114;BMP180;23926;53.222;6.354;2023-05-16T12:09:11;101952.00;;;16.00
38114;BMP180;23926;53.222;6.354;2023-05-16T12:11:41;101944.00;;;16.20
38114;BMP180;23926;53.222;6.354;2023-05-16T12:14:07;101956.00;;;16.40
38114;BMP180;23926;53.222;6.354;2023-05-16T12:16:34;101951.00;;;16.40
38114;BMP180;23926;53.222;6.354;2023-05-16T12:19:01;101956.00;;;16.30
38114;BMP180;23926;53.222;6.354;2023-05-16T12:21:29;101943.00;;;16.60
38114;BMP180;23926;53.222;6.354;2023-05-16T12:23:55;101957.00;;;16.90
38114;BMP180;23926;53.222;6.354;2023-05-16T12:26:28;101943.00;;;17.10
38114;BMP180;23926;53.222;6.354;2023-05-16T12:28:59;101955.00;;;16.80
38114;BMP180;23926;53.222;6.354;2023-05-16T12:31:28;101967.00;;;16.10
38114;BMP180;23926;53.222;6.354;2023-05-16T12:33:55;101974.00;;;15.70
38114;BMP180;23926;53.222;6.354;2023-05-16T12:36:21;101960.00;;;15.70
38114;BMP180;23926;53.222;6.354;2023-05-16T12:38:48;101973.00;;;15.80
38114;BMP180;23926;53.222;6.354;2023-05-16T12:41:20;101978.00;;;16.10
38114;BMP180;23926;53.222;6.354;2023-05-16T12:43:47;101969.00;;;16.10
38114;BMP180;23926;53.222;6.354;2023-05-16T12:46:12;101987.00;;;16.40
38114;BMP180;23926;53.222;6.354;2023-05-16T12:48:38;101975.00;;;16.40
38114;BMP180;23926;53.222;6.354;2023-05-16T12:51:13;101981.00;;;16.40
38114;BMP180;23926;53.222;6.354;2023-05-16T12:53:41;101978.00;;;16.30
38114;BMP180;23926;53.222;6.354;2023-05-16T12:56:07;101974.00;;;15.90
38114;BMP180;23926;53.222;6.354;2023-05-16T12:58:36;101967.00;;;16.10
38114;BMP180;23926;53.222;6.354;2023-05-16T13:01:01;101976.00;;;16.10
38114;BMP180;23926;53.222;6.354;2023-05-16T13:03:28;101965.00;;;16.20
38114;BMP180;23926;53.222;6.354;2023-05-16T13:05:54;101966.00;;;16.30
38114;BMP180;23926;53.222;6.354;2023-05-16T13:08:20;101976.00;;;16.50
38114;BMP180;23926;53.222;6.354;2023-05-16T13:10:45;101976.00;;;16.50
38114;BMP180;23926;53.222;6.354;2023-05-16T13:13:11;101982.00;;;16.30
38114;BMP180;23926;53.222;6.354;2023-05-16T13:15:36;101996.00;;;16.40
38114;BMP180;23926;53.222;6.354;2023-05-16T13:18:02;101984.00;;;16.20
38114;BMP180;23926;53.222;6.354;2023-05-16T13:20:28;101994.00;;;15.70
38114;BMP180;23926;53.222;6.354;2023-05-16T13:22:53;102000.00;;;15.30
38114;BMP180;23926;53.222;6.354;2023-05-16T13:25:20;102000.00;;;15.30
38114;BMP180;23926;53.222;6.354;2023-05-16T13:27:45;102003.00;;;15.20
38114;BMP180;23926;53.222;6.354;2023-05-16T13:30:13;102008.00;;;14.80
38114;BMP180;23926;53.222;6.354;2023-05-16T13:32:39;102015.00;;;14.60
38114;BMP180;23926;53.222;6.354;2023-05-16T13:35:05;102002.00;;;13.90
38114;BMP180;23926;53.222;6.354;2023-05-16T13:37:30;102000.00;;;13.70
38114;BMP180;23926;53.222;6.354;2023-05-16T13:39:56;102002.00;;;13.10
38114;BMP180;23926;53.222;6.354;2023-05-16T13:42:21;102000.00;;;12.50
38114;BMP180;23926;53.222;6.354;2023-05-16T13:44:47;101996.00;;;12.40
38114;BMP180;23926;53.222;6.354;2023-05-16T13:47:12;101992.00;;;12.60
38114;BMP180;23926;53.222;6.354;2023-05-16T13:49:38;101998.00;;;13.10
38114;BMP180;23926;53.222;6.354;2023-05-16T13:52:04;101980.00;;;13.60
38114;BMP180;23926;53.222;6.354;2023-05-16T13:54:29;101989.00;;;14.20
38114;BMP180;23926;53.222;6.354;2023-05-16T13:56:55;101999.00;;;14.50
38114;BMP180;23926;53.222;6.354;2023-05-16T13:59:22;101989.00;;;14.80
38114;BMP180;23926;53.222;6.354;2023-05-16T14:01:47;101985.00;;;14.80
38114;BMP180;23926;53.222;6.354;2023-05-16T14:04:12;101986.00;;;14.60
38114;BMP180;23926;53.222;6.354;2023-05-16T14:06:38;102001.00;;;14.40
38114;BMP180;23926;53.222;6.354;2023-05-16T14:09:03;101990.00;;;14.00
38114;BMP180;23926;53.222;6.354;2023-05-16T14:11:29;101988.00;;;13.90
38114;BMP180;23926;53.222;6.354;2023-05-16T14:13:55;102012.00;;;14.00
38114;BMP180;23926;53.222;6.354;2023-05-16T14:16:20;102006.00;;;14.00
38114;BMP180;23926;53.222;6.354;2023-05-16T14:18:46;101998.00;;;14.00
38114;BMP180;23926;53.222;6.354;2023-05-16T14:21:12;102007.00;;;14.20
38114;BMP180;23926;53.222;6.354;2023-05-16T14:23:37;101997.00;;;14.40
38114;BMP180;23926;53.222;6.354;2023-05-16T14:26:04;101990.00;;;14.50